PWSweather.com
Personal Weather Stations
Station Observations
IHTIMAN1
Neighbourhood 1, IhtimanBG 2050

Neighbourhood 1IhtimanBG 2050

Lat: 42.436852, Lon: 23.817921

Elevation: 2066

Station Type: Oregon Scientific WMR968

http://ihtiman-meteo.com

High Low Average
Temperature 73.6°F23.1°F 48.9°F9.4°F 59.9°F15.5°F
Dew Point 50.6°F10.3°F 39.6°F4.2°F 44.3°F6.8°F
Winds 6.5 mph SE10.5 mph SE Calm Calm 0.9 mph 1.4 mph
Wind Gusts 8.3 mph13.4 mph -- 1.8 mph2.9 mph
Humidity 89% 34% 59%
Pressure 30.15 in1021.00 in 30.00 in1015.90 in -
Precipitation 0.00 in0.00 in - -
Hour Temp Dew Point Humidity Winds Wind Gusts Pressure Precip Precip Rate Daily Precip Total
12:00 AM 52.2°F11.2°C 44.1°F6.7°C 74% Calm Calm -- 30.15 in1021.0 mb - 0.00 in0.0 mm 0.00 in0.0 mm
12:10 AM 52.0°F11.1°C 44.3°F6.8°C 75% Calm Calm -- 30.15 in1021.0 mb - 0.00 in0.0 mm 0.00 in0.0 mm
12:20 AM 51.8°F11.0°C 44.1°F6.7°C 75% Calm Calm -- 30.15 in1021.0 mb - 0.00 in0.0 mm 0.00 in0.0 mm
12:30 AM 51.6°F10.9°C 44.3°F6.8°C 76% Calm Calm -- 30.15 in1021.0 mb - 0.00 in0.0 mm 0.00 in0.0 mm
12:40 AM 51.6°F10.9°C 44.3°F6.8°C 76% Calm Calm -- 30.15 in1021.0 mb - 0.00 in0.0 mm 0.00 in0.0 mm
12:50 AM 51.3°F10.7°C 44.0°F6.7°C 76% Calm Calm -- 30.15 in1021.0 mb - 0.00 in0.0 mm 0.00 in0.0 mm
01:00 AM 51.1°F10.6°C 43.8°F6.6°C 76% Calm Calm -- 30.15 in1021.0 mb - 0.00 in0.0 mm 0.00 in0.0 mm
01:10 AM 50.7°F10.4°C 43.4°F6.3°C 76% Calm Calm -- 30.15 in1021.0 mb - 0.00 in0.0 mm 0.00 in0.0 mm
01:20 AM 50.4°F10.2°C 43.1°F6.2°C 76% Calm Calm -- 30.12 in1020.0 mb - 0.00 in0.0 mm 0.00 in0.0 mm
01:30 AM 50.2°F10.1°C 42.9°F6.1°C 76% Calm Calm -- 30.12 in1020.0 mb - 0.00 in0.0 mm 0.00 in0.0 mm
01:40 AM 50.0°F10.0°C 42.7°F5.9°C 76% Calm Calm -- 30.12 in1020.0 mb - 0.00 in0.0 mm 0.00 in0.0 mm
01:50 AM 49.8°F9.9°C 42.9°F6.1°C 77% Calm Calm -- 30.12 in1020.0 mb - 0.00 in0.0 mm 0.00 in0.0 mm
02:00 AM 49.6°F9.8°C 42.7°F5.9°C 77% Calm Calm -- 30.12 in1020.0 mb - 0.00 in0.0 mm 0.00 in0.0 mm
02:10 AM 49.8°F9.9°C 43.2°F6.2°C 78% Calm Calm -- 30.12 in1020.0 mb - 0.00 in0.0 mm 0.00 in0.0 mm
02:20 AM 49.8°F9.9°C 43.2°F6.2°C 78% Calm Calm -- 30.12 in1020.0 mb - 0.00 in0.0 mm 0.00 in0.0 mm
02:30 AM 49.8°F9.9°C 43.2°F6.2°C 78% Calm Calm -- 30.12 in1020.0 mb - 0.00 in0.0 mm 0.00 in0.0 mm
02:40 AM 49.8°F9.9°C 43.2°F6.2°C 78% Calm Calm -- 30.12 in1020.0 mb - 0.00 in0.0 mm 0.00 in0.0 mm
02:50 AM 49.8°F9.9°C 43.6°F6.4°C 79% Calm Calm -- 30.12 in1020.0 mb - 0.00 in0.0 mm 0.00 in0.0 mm
03:00 AM 49.8°F9.9°C 43.6°F6.4°C 79% Calm Calm -- 30.12 in1020.0 mb - 0.00 in0.0 mm 0.00 in0.0 mm
03:10 AM 50.0°F10.0°C 43.7°F6.5°C 79% Calm Calm 3.1 mph5.0 kmh 30.12 in1020.0 mb - 0.00 in0.0 mm 0.00 in0.0 mm
03:20 AM 50.0°F10.0°C 43.7°F6.5°C 79% Calm Calm -- 30.12 in1020.0 mb - 0.00 in0.0 mm 0.00 in0.0 mm
03:30 AM 49.8°F9.9°C 43.9°F6.6°C 80% Calm Calm -- 30.12 in1020.0 mb - 0.00 in0.0 mm 0.00 in0.0 mm
03:40 AM 49.6°F9.8°C 43.7°F6.5°C 80% Calm Calm -- 30.12 in1020.0 mb - 0.00 in0.0 mm 0.00 in0.0 mm
03:50 AM 49.5°F9.7°C 43.5°F6.4°C 80% Calm Calm -- 30.09 in1019.0 mb - 0.00 in0.0 mm 0.00 in0.0 mm
04:00 AM 49.4°F9.7°C 43.5°F6.4°C 80% Calm Calm -- 30.09 in1019.0 mb - 0.00 in0.0 mm 0.00 in0.0 mm
04:10 AM 49.3°F9.6°C 43.4°F6.3°C 80% Calm Calm -- 30.09 in1019.0 mb - 0.00 in0.0 mm 0.00 in0.0 mm
04:20 AM 49.1°F9.5°C 43.2°F6.2°C 80% Calm Calm -- 30.09 in1019.0 mb - 0.00 in0.0 mm 0.00 in0.0 mm
04:30 AM 49.1°F9.5°C 43.2°F6.2°C 80% Calm Calm -- 30.09 in1019.0 mb - 0.00 in0.0 mm 0.00 in0.0 mm
04:40 AM 48.9°F9.4°C 43.0°F6.1°C 80% Calm Calm -- 30.09 in1019.0 mb - 0.00 in0.0 mm 0.00 in0.0 mm
04:50 AM 49.1°F9.5°C 43.5°F6.4°C 81% Calm Calm -- 30.09 in1019.0 mb - 0.00 in0.0 mm 0.00 in0.0 mm
05:00 AM 49.3°F9.6°C 43.7°F6.5°C 81% Calm Calm -- 30.09 in1019.0 mb - 0.00 in0.0 mm 0.00 in0.0 mm
05:10 AM 49.5°F9.7°C 43.9°F6.6°C 81% Calm Calm -- 30.09 in1019.0 mb - 0.00 in0.0 mm 0.00 in0.0 mm
05:20 AM 49.5°F9.7°C 43.9°F6.6°C 81% Calm Calm -- 30.09 in1019.0 mb - 0.00 in0.0 mm 0.00 in0.0 mm
05:30 AM 49.6°F9.8°C 44.4°F6.9°C 82% Calm Calm -- 30.09 in1019.0 mb - 0.00 in0.0 mm 0.00 in0.0 mm
05:40 AM 49.8°F9.9°C 44.5°F6.9°C 82% Calm Calm -- 30.09 in1019.0 mb - 0.00 in0.0 mm 0.00 in0.0 mm
05:50 AM 50.0°F10.0°C 44.7°F7.1°C 82% Calm Calm -- 30.09 in1019.0 mb - 0.00 in0.0 mm 0.00 in0.0 mm
06:00 AM 50.2°F10.1°C 44.9°F7.2°C 82% Calm Calm -- 30.09 in1019.0 mb - 0.00 in0.0 mm 0.00 in0.0 mm
06:10 AM 50.4°F10.2°C 45.1°F7.3°C 82% Calm Calm -- 30.09 in1019.0 mb - 0.00 in0.0 mm 0.00 in0.0 mm
06:20 AM 50.7°F10.4°C 45.4°F7.4°C 82% Calm Calm -- 30.09 in1019.0 mb - 0.00 in0.0 mm 0.00 in0.0 mm
06:30 AM 51.1°F10.6°C 46.1°F7.8°C 83% Calm Calm -- 30.09 in1019.0 mb - 0.00 in0.0 mm 0.00 in0.0 mm
06:40 AM 51.1°F10.6°C 46.5°F8.1°C 84% Calm Calm -- 30.09 in1019.0 mb - 0.00 in0.0 mm 0.00 in0.0 mm
06:50 AM 51.6°F10.9°C 48.2°F9.0°C 88% Calm Calm -- 30.09 in1019.0 mb - 0.00 in0.0 mm 0.00 in0.0 mm
07:00 AM 51.8°F11.0°C 48.7°F9.3°C 89% Calm Calm -- 30.09 in1019.0 mb - 0.00 in0.0 mm 0.00 in0.0 mm
07:10 AM 52.3°F11.3°C 49.2°F9.6°C 89% Calm Calm -- 30.09 in1019.0 mb - 0.00 in0.0 mm 0.00 in0.0 mm
07:20 AM 52.9°F11.6°C 49.1°F9.5°C 87% Calm Calm -- 30.09 in1019.0 mb - 0.00 in0.0 mm 0.00 in0.0 mm
07:30 AM 53.5°F11.9°C 49.1°F9.5°C 85% Calm Calm -- 30.09 in1019.0 mb - 0.00 in0.0 mm 0.00 in0.0 mm
07:40 AM 54.1°F12.3°C 49.1°F9.5°C 83% Calm Calm -- 30.09 in1019.0 mb - 0.00 in0.0 mm 0.00 in0.0 mm
07:50 AM 54.7°F12.6°C 49.3°F9.6°C 82% Calm Calm -- 30.09 in1019.0 mb - 0.00 in0.0 mm 0.00 in0.0 mm
08:00 AM 55.0°F12.8°C 48.9°F9.4°C 80% Calm Calm -- 30.09 in1019.0 mb - 0.00 in0.0 mm 0.00 in0.0 mm
08:10 AM 55.6°F13.1°C 49.8°F9.9°C 81% Calm Calm -- 30.09 in1019.0 mb - 0.00 in0.0 mm 0.00 in0.0 mm
08:20 AM 56.7°F13.7°C 50.6°F10.3°C 80% Calm Calm -- 30.09 in1019.0 mb - 0.00 in0.0 mm 0.00 in0.0 mm
08:30 AM 57.6°F14.2°C 48.2°F9.0°C 71% Calm Calm -- 30.09 in1019.0 mb - 0.00 in0.0 mm 0.00 in0.0 mm
08:40 AM 57.9°F14.4°C 48.2°F9.0°C 70% Calm Calm -- 30.09 in1019.0 mb - 0.00 in0.0 mm 0.00 in0.0 mm
08:50 AM 59.0°F15.0°C 48.8°F9.3°C 69% Calm Calm -- 30.09 in1019.0 mb - 0.00 in0.0 mm 0.00 in0.0 mm
09:00 AM 59.9°F15.5°C 48.5°F9.2°C 66% Calm Calm -- 30.09 in1019.0 mb - 0.00 in0.0 mm 0.00 in0.0 mm
09:10 AM 60.3°F15.7°C 48.9°F9.4°C 66% Calm Calm -- 30.09 in1019.0 mb - 0.00 in0.0 mm 0.00 in0.0 mm
09:20 AM 61.4°F16.3°C 47.9°F8.8°C 61% Calm Calm 3.1 mph5.0 kmh 30.09 in1019.0 mb - 0.00 in0.0 mm 0.00 in0.0 mm
09:30 AM 61.7°F16.5°C 47.7°F8.7°C 60% Calm Calm -- 30.09 in1019.0 mb - 0.00 in0.0 mm 0.00 in0.0 mm
09:40 AM 63.7°F17.6°C 46.3°F7.9°C 53% 3.1 mph SE5.0 kmh SE 4.9 mph7.9 kmh 30.09 in1019.0 mb - 0.00 in0.0 mm 0.00 in0.0 mm
09:50 AM 64.2°F17.9°C 45.7°F7.6°C 51% 3.1 mph SE5.0 kmh SE 3.1 mph5.0 kmh 30.09 in1019.0 mb - 0.00 in0.0 mm 0.00 in0.0 mm
10:00 AM 64.6°F18.1°C 42.2°F5.7°C 44% 3.8 mph E6.1 kmh E 5.4 mph8.7 kmh 30.09 in1019.0 mb - 0.00 in0.0 mm 0.00 in0.0 mm
10:10 AM 65.9°F18.8°C 43.4°F6.3°C 44% 0.7 mph E1.1 kmh E 3.6 mph5.8 kmh 30.09 in1019.0 mb - 0.00 in0.0 mm 0.00 in0.0 mm
10:20 AM 66.0°F18.9°C 43.5°F6.4°C 44% 0.4 mph SE0.6 kmh SE 5.4 mph8.7 kmh 30.09 in1019.0 mb - 0.00 in0.0 mm 0.00 in0.0 mm
10:30 AM 66.1°F18.9°C 41.7°F5.4°C 41% 3.6 mph SE5.8 kmh SE 3.1 mph5.0 kmh 30.09 in1019.0 mb - 0.00 in0.0 mm 0.00 in0.0 mm
10:40 AM 66.7°F19.3°C 41.0°F5.0°C 39% 5.0 mph SE8.0 kmh SE 7.6 mph12.2 kmh 30.09 in1019.0 mb - 0.00 in0.0 mm 0.00 in0.0 mm
10:50 AM 66.7°F19.3°C 39.6°F4.2°C 37% 5.3 mph E8.5 kmh E 7.6 mph12.2 kmh 30.09 in1019.0 mb - 0.00 in0.0 mm 0.00 in0.0 mm
11:00 AM 67.5°F19.7°C 41.0°F5.0°C 38% 2.9 mph ENE4.7 kmh ENE 7.6 mph12.2 kmh 30.09 in1019.0 mb - 0.00 in0.0 mm 0.00 in0.0 mm
11:10 AM 67.8°F19.9°C 40.6°F4.8°C 37% 6.1 mph SE9.8 kmh SE 8.0 mph12.9 kmh 30.09 in1019.0 mb - 0.00 in0.0 mm 0.00 in0.0 mm
11:20 AM 67.8°F19.9°C 40.6°F4.8°C 37% 3.2 mph SE5.1 kmh SE 3.6 mph5.8 kmh 30.09 in1019.0 mb - 0.00 in0.0 mm 0.00 in0.0 mm
11:30 AM 68.5°F20.3°C 41.2°F5.1°C 37% 3.6 mph SE5.8 kmh SE 8.3 mph13.4 kmh 30.08 in1018.6 mb - 0.00 in0.0 mm 0.00 in0.0 mm
11:40 AM 68.9°F20.5°C 40.8°F4.9°C 36% 2.9 mph ESE4.7 kmh ESE 5.4 mph8.7 kmh 30.06 in1017.9 mb - 0.00 in0.0 mm 0.00 in0.0 mm
11:50 AM 69.1°F20.6°C 41.0°F5.0°C 36% 6.5 mph SE10.5 kmh SE 5.4 mph8.7 kmh 30.06 in1017.9 mb - 0.00 in0.0 mm 0.00 in0.0 mm
12:00 PM 69.7°F20.9°C 41.6°F5.3°C 36% Calm Calm -- 30.06 in1017.9 mb - 0.00 in0.0 mm 0.00 in0.0 mm
12:10 PM 69.9°F21.1°C 42.4°F5.8°C 37% 3.1 mph S5.0 kmh S 5.4 mph8.7 kmh 30.06 in1017.9 mb - 0.00 in0.0 mm 0.00 in0.0 mm
12:20 PM 70.8°F21.6°C 43.9°F6.6°C 38% 2.2 mph SE3.5 kmh SE 5.8 mph9.3 kmh 30.06 in1017.9 mb - 0.00 in0.0 mm 0.00 in0.0 mm
12:30 PM 70.9°F21.6°C 42.6°F5.9°C 36% 4.0 mph SE6.4 kmh SE 5.4 mph8.7 kmh 30.06 in1017.9 mb - 0.00 in0.0 mm 0.00 in0.0 mm
12:40 PM 71.1°F21.7°C 43.5°F6.4°C 37% 2.4 mph S3.9 kmh S 6.3 mph10.1 kmh 30.06 in1017.9 mb - 0.00 in0.0 mm 0.00 in0.0 mm
12:50 PM 71.4°F21.9°C 41.6°F5.3°C 34% 5.7 mph SE9.2 kmh SE 5.8 mph9.3 kmh 30.06 in1017.9 mb - 0.00 in0.0 mm 0.00 in0.0 mm
01:00 PM 71.6°F22.0°C 41.7°F5.4°C 34% 2.8 mph S4.5 kmh S 5.4 mph8.7 kmh 30.06 in1017.9 mb - 0.00 in0.0 mm 0.00 in0.0 mm
01:10 PM 71.9°F22.2°C 42.7°F5.9°C 35% 4.8 mph S7.7 kmh S 7.6 mph12.2 kmh 30.06 in1017.9 mb - 0.00 in0.0 mm 0.00 in0.0 mm
01:20 PM 71.1°F21.7°C 42.8°F6.0°C 36% 5.2 mph SE8.4 kmh SE 5.8 mph9.3 kmh 30.06 in1017.9 mb - 0.00 in0.0 mm 0.00 in0.0 mm
01:30 PM 71.3°F21.8°C 42.2°F5.7°C 35% 4.3 mph S6.9 kmh S 5.8 mph9.3 kmh 30.06 in1017.9 mb - 0.00 in0.0 mm 0.00 in0.0 mm
01:40 PM 71.4°F21.9°C 42.3°F5.7°C 35% Calm Calm 3.1 mph5.0 kmh 30.06 in1017.9 mb - 0.00 in0.0 mm 0.00 in0.0 mm
01:50 PM 72.3°F22.4°C 43.1°F6.2°C 35% 2.7 mph SE4.3 kmh SE 5.4 mph8.7 kmh 30.03 in1016.9 mb - 0.00 in0.0 mm 0.00 in0.0 mm
02:00 PM 73.6°F23.1°C 43.5°F6.4°C 34% 3.6 mph SE5.8 kmh SE 5.4 mph8.7 kmh 30.03 in1016.9 mb - 0.00 in0.0 mm 0.00 in0.0 mm
02:10 PM 72.0°F22.2°C 42.1°F5.6°C 34% 2.5 mph S4.0 kmh S 5.8 mph9.3 kmh 30.03 in1016.9 mb - 0.00 in0.0 mm 0.00 in0.0 mm
02:20 PM 69.6°F20.9°C 41.4°F5.2°C 36% Calm Calm 2.2 mph3.5 kmh 30.03 in1016.9 mb - 0.00 in0.0 mm 0.00 in0.0 mm
02:30 PM 68.5°F20.3°C 41.9°F5.5°C 38% 2.2 mph E3.5 kmh E -- 30.03 in1016.9 mb - 0.00 in0.0 mm 0.00 in0.0 mm
02:40 PM 68.0°F20.0°C 43.4°F6.3°C 41% 0.3 mph E0.5 kmh E -- 30.03 in1016.9 mb - 0.00 in0.0 mm 0.00 in0.0 mm
02:50 PM 67.2°F19.6°C 44.5°F6.9°C 44% Calm Calm 2.2 mph3.5 kmh 30.03 in1016.9 mb - 0.00 in0.0 mm 0.00 in0.0 mm
03:00 PM 66.6°F19.2°C 45.1°F7.3°C 46% 2.9 mph NE4.7 kmh NE 5.4 mph8.7 kmh 30.03 in1016.9 mb - 0.00 in0.0 mm 0.00 in0.0 mm
03:10 PM 65.8°F18.8°C 46.7°F8.2°C 50% Calm Calm 2.2 mph3.5 kmh 30.03 in1016.9 mb - 0.00 in0.0 mm 0.00 in0.0 mm
03:20 PM 67.0°F19.4°C 45.5°F7.5°C 46% 0.2 mph N0.3 kmh N 5.8 mph9.3 kmh 30.03 in1016.9 mb - 0.00 in0.0 mm 0.00 in0.0 mm
03:30 PM 67.6°F19.8°C 45.5°F7.5°C 45% Calm Calm -- 30.03 in1016.9 mb - 0.00 in0.0 mm 0.00 in0.0 mm
03:40 PM 67.8°F19.9°C 46.3°F7.9°C 46% Calm Calm -- 30.03 in1016.9 mb - 0.00 in0.0 mm 0.00 in0.0 mm
03:50 PM 70.7°F21.5°C 47.1°F8.4°C 43% Calm Calm 2.2 mph3.5 kmh 30.03 in1016.9 mb - 0.00 in0.0 mm 0.00 in0.0 mm
04:00 PM 71.6°F22.0°C 45.3°F7.4°C 39% Calm Calm -- 30.03 in1016.9 mb - 0.00 in0.0 mm 0.00 in0.0 mm
04:10 PM 70.1°F21.2°C 43.3°F6.3°C 38% Calm Calm 2.2 mph3.5 kmh 30.03 in1016.9 mb - 0.00 in0.0 mm 0.00 in0.0 mm
04:20 PM 70.7°F21.5°C 44.5°F6.9°C 39% Calm Calm 2.2 mph3.5 kmh 30.03 in1016.9 mb - 0.00 in0.0 mm 0.00 in0.0 mm
04:30 PM 71.2°F21.8°C 44.3°F6.8°C 38% 0.4 mph NNE0.6 kmh NNE -- 30.03 in1016.9 mb - 0.00 in0.0 mm 0.00 in0.0 mm
04:40 PM 70.7°F21.5°C 43.8°F6.6°C 38% 3.7 mph E6.0 kmh E 5.4 mph8.7 kmh 30.00 in1015.9 mb - 0.00 in0.0 mm 0.00 in0.0 mm
04:50 PM 70.2°F21.2°C 42.7°F5.9°C 37% Calm Calm -- 30.00 in1015.9 mb - 0.00 in0.0 mm 0.00 in0.0 mm
05:00 PM 70.2°F21.2°C 44.0°F6.7°C 39% Calm Calm 3.6 mph5.8 kmh 30.00 in1015.9 mb - 0.00 in0.0 mm 0.00 in0.0 mm
05:10 PM 69.1°F20.6°C 42.4°F5.8°C 38% Calm Calm 2.2 mph3.5 kmh 30.00 in1015.9 mb - 0.00 in0.0 mm 0.00 in0.0 mm
05:20 PM 68.2°F20.1°C 43.6°F6.4°C 41% Calm Calm -- 30.00 in1015.9 mb - 0.00 in0.0 mm 0.00 in0.0 mm
05:30 PM 68.9°F20.5°C 47.3°F8.5°C 46% 3.3 mph WNW5.3 kmh WNW 6.3 mph10.1 kmh 30.00 in1015.9 mb - 0.00 in0.0 mm 0.00 in0.0 mm
05:40 PM 69.3°F20.7°C 47.6°F8.7°C 46% Calm Calm -- 30.00 in1015.9 mb - 0.00 in0.0 mm 0.00 in0.0 mm
05:50 PM 68.9°F20.5°C 48.9°F9.4°C 49% 3.5 mph SW5.6 kmh SW 5.8 mph9.3 kmh 30.00 in1015.9 mb - 0.00 in0.0 mm 0.00 in0.0 mm
06:00 PM 67.2°F19.6°C 47.4°F8.6°C 49% 2.8 mph SW4.5 kmh SW 7.2 mph11.6 kmh 30.00 in1015.9 mb - 0.00 in0.0 mm 0.00 in0.0 mm
06:10 PM 67.5°F19.7°C 45.9°F7.7°C 46% 3.1 mph S5.0 kmh S 3.6 mph5.8 kmh 30.00 in1015.9 mb - 0.00 in0.0 mm 0.00 in0.0 mm
06:20 PM 67.3°F19.6°C 46.4°F8.0°C 47% 2.7 mph SW4.3 kmh SW 5.8 mph9.3 kmh 30.00 in1015.9 mb - 0.00 in0.0 mm 0.00 in0.0 mm
06:30 PM 66.5°F19.2°C 46.2°F7.9°C 48% 0.1 mph SW0.2 kmh SW 5.4 mph8.7 kmh 30.00 in1015.9 mb - 0.00 in0.0 mm 0.00 in0.0 mm
06:40 PM 65.8°F18.8°C 46.1°F7.8°C 49% Calm Calm 4.0 mph6.4 kmh 30.00 in1015.9 mb - 0.00 in0.0 mm 0.00 in0.0 mm
06:50 PM 65.7°F18.7°C 46.5°F8.1°C 50% 2.3 mph S3.7 kmh S 2.7 mph4.3 kmh 30.00 in1015.9 mb - 0.00 in0.0 mm 0.00 in0.0 mm
07:00 PM 65.7°F18.7°C 46.0°F7.8°C 49% 0.4 mph SE0.6 kmh SE -- 30.00 in1015.9 mb - 0.00 in0.0 mm 0.00 in0.0 mm
07:10 PM 65.5°F18.6°C 45.8°F7.7°C 49% 4.0 mph SE6.4 kmh SE 4.9 mph7.9 kmh 30.00 in1015.9 mb - 0.00 in0.0 mm 0.00 in0.0 mm
07:20 PM 65.0°F18.3°C 45.4°F7.4°C 49% 2.6 mph SE4.2 kmh SE 5.8 mph9.3 kmh 30.00 in1015.9 mb - 0.00 in0.0 mm 0.00 in0.0 mm
07:30 PM 64.2°F17.9°C 44.6°F7.0°C 49% 3.5 mph SE5.6 kmh SE 4.0 mph6.4 kmh 30.00 in1015.9 mb - 0.00 in0.0 mm 0.00 in0.0 mm
07:40 PM 63.3°F17.4°C 44.4°F6.9°C 50% Calm Calm 3.6 mph5.8 kmh 30.00 in1015.9 mb - 0.00 in0.0 mm 0.00 in0.0 mm
07:50 PM 63.0°F17.2°C 44.0°F6.7°C 50% 0.5 mph SSE0.8 kmh SSE -- 30.00 in1015.9 mb - 0.00 in0.0 mm 0.00 in0.0 mm
08:00 PM 62.5°F16.9°C 44.1°F6.7°C 51% Calm Calm -- 30.00 in1015.9 mb - 0.00 in0.0 mm 0.00 in0.0 mm
08:10 PM 62.1°F16.7°C 44.2°F6.8°C 52% Calm Calm -- 30.00 in1015.9 mb - 0.00 in0.0 mm 0.00 in0.0 mm
08:20 PM 61.5°F16.4°C 43.7°F6.5°C 52% Calm Calm -- 30.00 in1015.9 mb - 0.00 in0.0 mm 0.00 in0.0 mm
08:30 PM 60.8°F16.0°C 43.1°F6.2°C 52% Calm Calm -- 30.00 in1015.9 mb - 0.00 in0.0 mm 0.00 in0.0 mm
08:40 PM 60.1°F15.6°C 42.9°F6.1°C 53% Calm Calm -- 30.00 in1015.9 mb - 0.00 in0.0 mm 0.00 in0.0 mm
08:50 PM 59.5°F15.3°C 42.9°F6.1°C 54% Calm Calm -- 30.00 in1015.9 mb - 0.00 in0.0 mm 0.00 in0.0 mm
09:00 PM 59.2°F15.1°C 43.0°F6.1°C 55% Calm Calm -- 30.00 in1015.9 mb - 0.00 in0.0 mm 0.00 in0.0 mm
09:10 PM 58.8°F14.9°C 43.6°F6.4°C 57% Calm Calm -- 30.00 in1015.9 mb - 0.00 in0.0 mm 0.00 in0.0 mm
09:20 PM 58.5°F14.7°C 43.3°F6.3°C 57% Calm Calm -- 30.00 in1015.9 mb - 0.00 in0.0 mm 0.00 in0.0 mm
09:30 PM 58.0°F14.4°C 42.9°F6.1°C 57% Calm Calm -- 30.00 in1015.9 mb - 0.00 in0.0 mm 0.00 in0.0 mm
09:40 PM 57.6°F14.2°C 42.9°F6.1°C 58% Calm Calm -- 30.03 in1016.9 mb - 0.00 in0.0 mm 0.00 in0.0 mm
09:50 PM 57.2°F14.0°C 42.5°F5.8°C 58% Calm Calm -- 30.03 in1016.9 mb - 0.00 in0.0 mm 0.00 in0.0 mm
10:00 PM 56.8°F13.8°C 42.7°F5.9°C 59% Calm Calm -- 30.03 in1016.9 mb - 0.00 in0.0 mm 0.00 in0.0 mm
10:10 PM 56.3°F13.5°C 42.6°F5.9°C 60% Calm Calm -- 30.03 in1016.9 mb - 0.00 in0.0 mm 0.00 in0.0 mm
10:20 PM 56.0°F13.3°C 42.8°F6.0°C 61% Calm Calm -- 30.03 in1016.9 mb - 0.00 in0.0 mm 0.00 in0.0 mm
10:30 PM 55.6°F13.1°C 42.3°F5.7°C 61% Calm Calm -- 30.03 in1016.9 mb - 0.00 in0.0 mm 0.00 in0.0 mm
10:40 PM 55.2°F12.9°C 42.4°F5.8°C 62% Calm Calm -- 30.00 in1015.9 mb - 0.00 in0.0 mm 0.00 in0.0 mm
10:50 PM 54.7°F12.6°C 42.3°F5.7°C 63% Calm Calm -- 30.00 in1015.9 mb - 0.00 in0.0 mm 0.00 in0.0 mm
11:00 PM 54.3°F12.4°C 42.4°F5.8°C 64% Calm Calm -- 30.00 in1015.9 mb - 0.00 in0.0 mm 0.00 in0.0 mm
11:10 PM 53.8°F12.1°C 41.9°F5.5°C 64% Calm Calm -- 30.00 in1015.9 mb - 0.00 in0.0 mm 0.00 in0.0 mm
11:20 PM 53.4°F11.9°C 41.9°F5.5°C 65% Calm Calm -- 30.00 in1015.9 mb - 0.00 in0.0 mm 0.00 in0.0 mm
11:30 PM 53.1°F11.7°C 42.0°F5.6°C 66% Calm Calm 2.7 mph4.3 kmh 30.00 in1015.9 mb - 0.00 in0.0 mm 0.00 in0.0 mm
11:40 PM 52.7°F11.5°C 41.7°F5.4°C 66% Calm Calm -- 30.00 in1015.9 mb - 0.00 in0.0 mm 0.00 in0.0 mm
11:50 PM 52.3°F11.3°C 41.7°F5.4°C 67% Calm Calm -- 30.00 in1015.9 mb - 0.00 in0.0 mm 0.00 in0.0 mm